createdAt,value
2022-12-04T00:00:10.405Z,437.00
2022-12-04T00:01:10.431Z,438.00
2022-12-04T00:02:10.370Z,430.00
2022-12-04T00:03:10.436Z,428.00
2022-12-04T00:04:10.354Z,418.00
2022-12-04T00:05:10.389Z,410.00
2022-12-04T00:06:10.322Z,393.00
2022-12-04T00:07:10.307Z,409.00
2022-12-04T00:08:10.328Z,413.00
2022-12-04T00:09:10.302Z,421.00
2022-12-04T00:10:10.296Z,438.00
2022-12-04T00:11:10.263Z,428.00
2022-12-04T00:12:10.266Z,425.00
2022-12-04T00:13:10.241Z,422.00
2022-12-04T00:14:10.237Z,428.00
2022-12-04T00:15:26.627Z,412.00
2022-12-04T00:16:10.235Z,418.00
2022-12-04T00:17:10.220Z,417.00
2022-12-04T00:18:10.180Z,426.00
2022-12-04T00:19:10.182Z,421.00
2022-12-04T00:20:10.149Z,435.00
2022-12-04T00:21:10.132Z,438.00
2022-12-04T00:22:10.103Z,442.00
2022-12-04T00:23:10.113Z,381.00
2022-12-04T00:24:10.095Z,429.00
2022-12-04T00:25:10.096Z,425.00
2022-12-04T00:26:10.074Z,428.00
2022-12-04T00:27:10.090Z,425.00
2022-12-04T00:28:10.063Z,417.00
2022-12-04T00:29:10.023Z,441.00
2022-12-04T00:30:10.029Z,448.00
2022-12-04T00:31:16.095Z,449.00
2022-12-04T00:32:10.083Z,446.00
2022-12-04T00:33:09.976Z,452.00
2022-12-04T00:34:09.966Z,448.00
2022-12-04T00:35:09.958Z,437.00
2022-12-04T00:36:09.946Z,458.00
2022-12-04T00:37:09.925Z,461.00
2022-12-04T00:38:09.915Z,461.00
2022-12-04T00:39:09.905Z,459.00
2022-12-04T00:40:09.876Z,461.00
2022-12-04T00:41:09.889Z,466.00
2022-12-04T00:42:09.868Z,437.00
2022-12-04T00:43:09.865Z,430.00
2022-12-04T00:44:09.837Z,428.00
2022-12-04T00:45:09.824Z,441.00
2022-12-04T00:46:10.105Z,440.00
2022-12-04T00:47:09.794Z,440.00
2022-12-04T00:48:09.787Z,435.00
2022-12-04T00:49:09.769Z,468.00
2022-12-04T00:50:09.766Z,422.00
2022-12-04T00:51:09.751Z,433.00
2022-12-04T00:52:09.719Z,438.00
2022-12-04T00:53:09.723Z,447.00
2022-12-04T00:54:09.697Z,457.00
2022-12-04T00:55:09.695Z,460.00
2022-12-04T00:56:09.682Z,465.00
2022-12-04T00:57:09.727Z,440.00
2022-12-04T00:58:09.642Z,444.00
2022-12-04T00:59:09.641Z,432.00
2022-12-04T01:00:09.630Z,456.00
2022-12-04T01:01:09.716Z,441.00
2022-12-04T01:02:09.589Z,438.00
2022-12-04T01:03:09.726Z,449.00
2022-12-04T01:04:09.569Z,417.00
2022-12-04T01:05:09.553Z,406.00
2022-12-04T01:06:09.547Z,407.00
2022-12-04T01:07:09.569Z,407.00
2022-12-04T01:08:09.568Z,424.00
2022-12-04T01:09:09.500Z,455.00
2022-12-04T01:10:09.501Z,452.00
2022-12-04T01:11:09.485Z,437.00
2022-12-04T01:12:09.480Z,456.00
2022-12-04T01:13:09.477Z,453.00
2022-12-04T01:14:09.437Z,454.00
2022-12-04T01:15:09.441Z,451.00
2022-12-04T01:16:09.460Z,455.00
2022-12-04T01:17:09.399Z,459.00
2022-12-04T01:18:09.383Z,469.00
2022-12-04T01:19:09.405Z,449.00
2022-12-04T01:20:09.382Z,459.00
2022-12-04T01:21:09.374Z,457.00
2022-12-04T01:22:09.338Z,457.00
2022-12-04T01:23:09.324Z,454.00
2022-12-04T01:24:09.309Z,452.00
2022-12-04T01:25:09.293Z,435.00
2022-12-04T01:26:09.309Z,425.00
2022-12-04T01:27:09.283Z,424.00
2022-12-04T01:28:09.264Z,435.00
2022-12-04T01:29:09.287Z,451.00
2022-12-04T01:30:09.249Z,446.00
2022-12-04T01:31:09.243Z,453.00
2022-12-04T01:32:09.247Z,457.00
2022-12-04T01:33:09.190Z,451.00
2022-12-04T01:34:09.189Z,456.00
2022-12-04T01:35:09.181Z,453.00
2022-12-04T01:36:09.153Z,433.00
2022-12-04T01:37:09.181Z,440.00
2022-12-04T01:38:09.125Z,453.00
2022-12-04T01:39:09.112Z,442.00
2022-12-04T01:40:09.098Z,441.00
2022-12-04T01:41:09.101Z,445.00
2022-12-04T01:42:09.087Z,419.00
2022-12-04T01:43:09.088Z,462.00
2022-12-04T01:44:09.071Z,451.00
2022-12-04T01:45:09.067Z,435.00
2022-12-04T01:46:09.161Z,445.00
2022-12-04T01:47:09.043Z,425.00
2022-12-04T01:48:09.015Z,432.00
2022-12-04T01:49:09.001Z,421.00
2022-12-04T01:50:08.988Z,420.00
2022-12-04T01:51:08.980Z,423.00
2022-12-04T01:52:08.968Z,432.00
2022-12-04T01:53:08.935Z,435.00
2022-12-04T01:54:08.948Z,458.00
2022-12-04T01:55:08.919Z,460.00
2022-12-04T01:56:08.919Z,454.00
2022-12-04T01:57:08.877Z,447.00
2022-12-04T01:58:08.876Z,461.00
2022-12-04T01:59:08.851Z,442.00
2022-12-04T02:00:08.860Z,449.00
2022-12-04T02:01:09.541Z,436.00
2022-12-04T02:02:09.024Z,442.00
2022-12-04T02:03:08.924Z,446.00
2022-12-04T02:04:08.804Z,447.00
2022-12-04T02:05:08.792Z,438.00
2022-12-04T02:06:08.789Z,455.00
2022-12-04T02:07:08.774Z,457.00
2022-12-04T02:08:08.857Z,464.00
2022-12-04T02:09:08.724Z,444.00
2022-12-04T02:10:08.717Z,450.00
2022-12-04T02:11:08.720Z,448.00
2022-12-04T02:12:08.698Z,442.00
2022-12-04T02:13:08.696Z,452.00
2022-12-04T02:14:08.671Z,470.00
2022-12-04T02:15:08.669Z,457.00
2022-12-04T02:16:08.713Z,468.00
2022-12-04T02:17:08.715Z,458.00
2022-12-04T02:18:08.686Z,449.00
2022-12-04T02:19:08.633Z,466.00
2022-12-04T02:20:08.633Z,458.00
2022-12-04T02:21:08.630Z,458.00
2022-12-04T02:22:08.616Z,447.00
2022-12-04T02:23:08.549Z,445.00
2022-12-04T02:24:08.565Z,460.00
2022-12-04T02:25:08.534Z,491.00
2022-12-04T02:26:08.531Z,454.00
2022-12-04T02:27:08.499Z,451.00
2022-12-04T02:28:08.542Z,437.00
2022-12-04T02:29:08.499Z,425.00
2022-12-04T02:30:08.461Z,438.00
2022-12-04T02:31:08.600Z,449.00
2022-12-04T02:32:08.441Z,438.00
2022-12-04T02:33:08.435Z,447.00
2022-12-04T02:34:08.436Z,448.00
2022-12-04T02:35:08.499Z,448.00
2022-12-04T02:36:08.416Z,431.00
2022-12-04T02:37:08.377Z,428.00
2022-12-04T02:38:08.349Z,419.00
2022-12-04T02:39:08.337Z,428.00
2022-12-04T02:40:08.359Z,422.00
2022-12-04T02:41:08.313Z,450.00
2022-12-04T02:42:08.330Z,429.00
2022-12-04T02:43:08.300Z,414.00
2022-12-04T02:44:08.276Z,420.00
2022-12-04T02:45:08.272Z,430.00
2022-12-04T02:46:08.324Z,443.00
2022-12-04T02:47:08.249Z,446.00
2022-12-04T02:48:08.242Z,453.00
2022-12-04T02:49:08.226Z,467.00
2022-12-04T02:50:08.218Z,456.00
2022-12-04T02:51:08.203Z,464.00
2022-12-04T02:52:08.196Z,451.00
2022-12-04T02:53:08.169Z,418.00
2022-12-04T02:54:08.155Z,406.00
2022-12-04T02:55:08.854Z,417.00
2022-12-04T02:56:08.142Z,399.00
2022-12-04T02:57:08.124Z,404.00
2022-12-04T02:58:08.088Z,411.00
2022-12-04T02:59:08.091Z,417.00
2022-12-04T03:00:08.083Z,444.00
2022-12-04T03:01:08.114Z,445.00
2022-12-04T03:02:08.092Z,448.00
2022-12-04T03:03:08.028Z,452.00
2022-12-04T03:04:08.055Z,443.00
2022-12-04T03:05:08.035Z,396.00
2022-12-04T03:06:07.993Z,386.00
2022-12-04T03:07:08.020Z,422.00
2022-12-04T03:08:08.037Z,389.00
2022-12-04T03:09:07.970Z,390.00
2022-12-04T03:10:08.006Z,415.00
2022-12-04T03:11:07.953Z,399.00
2022-12-04T03:12:08.020Z,405.00
2022-12-04T03:13:07.911Z,436.00
2022-12-04T03:14:07.888Z,435.00
2022-12-04T03:15:07.883Z,458.00
2022-12-04T03:16:07.922Z,457.00
2022-12-04T03:17:07.933Z,457.00
2022-12-04T03:18:07.844Z,457.00
2022-12-04T03:19:07.870Z,436.00
2022-12-04T03:20:07.833Z,430.00
2022-12-04T03:21:07.823Z,438.00
2022-12-04T03:22:07.815Z,439.00
2022-12-04T03:23:07.822Z,420.00
2022-12-04T03:24:07.775Z,409.00
2022-12-04T03:25:07.741Z,383.00
2022-12-04T03:26:07.782Z,376.00
2022-12-04T03:27:07.745Z,367.00
2022-12-04T03:28:07.730Z,376.00
2022-12-04T03:29:07.717Z,389.00
2022-12-04T03:30:07.723Z,405.00
2022-12-04T03:31:07.779Z,407.00
2022-12-04T03:32:07.716Z,396.00
2022-12-04T03:33:07.658Z,411.00
2022-12-04T03:34:07.682Z,430.00
2022-12-04T03:35:07.633Z,436.00
2022-12-04T03:36:07.612Z,436.00
2022-12-04T03:37:07.612Z,423.00
2022-12-04T03:38:07.599Z,428.00
2022-12-04T03:39:07.590Z,436.00
2022-12-04T03:40:07.561Z,436.00
2022-12-04T03:41:07.581Z,439.00
2022-12-04T03:42:07.572Z,439.00
2022-12-04T03:43:07.536Z,447.00
2022-12-04T03:44:07.535Z,445.00
2022-12-04T03:45:07.517Z,461.00
2022-12-04T03:46:07.516Z,458.00
2022-12-04T03:47:07.495Z,453.00
2022-12-04T03:48:07.504Z,439.00
2022-12-04T03:49:07.455Z,449.00
2022-12-04T03:50:07.432Z,453.00
2022-12-04T03:51:07.431Z,436.00
2022-12-04T03:52:07.429Z,425.00
2022-12-04T03:53:07.416Z,441.00
2022-12-04T03:54:07.401Z,442.00
2022-12-04T03:55:07.416Z,465.00
2022-12-04T03:56:07.366Z,444.00
2022-12-04T03:57:07.326Z,435.00
2022-12-04T03:58:07.371Z,406.00
2022-12-04T03:59:07.307Z,396.00
2022-12-04T04:00:07.343Z,392.00
2022-12-04T04:01:07.357Z,400.00
2022-12-04T04:02:07.405Z,405.00
2022-12-04T04:03:07.369Z,390.00
2022-12-04T04:04:07.251Z,388.00
2022-12-04T04:05:07.236Z,398.00
2022-12-04T04:06:07.240Z,396.00
2022-12-04T04:07:07.199Z,389.00
2022-12-04T04:08:07.260Z,390.00
2022-12-04T04:09:07.183Z,390.00
2022-12-04T04:10:07.171Z,395.00
2022-12-04T04:11:07.151Z,388.00
2022-12-04T04:12:07.166Z,368.00
2022-12-04T04:13:07.129Z,357.00
2022-12-04T04:14:07.149Z,370.00
2022-12-04T04:15:07.116Z,368.00
2022-12-04T04:16:07.157Z,390.00
2022-12-04T04:17:07.063Z,399.00
2022-12-04T04:18:07.074Z,398.00
2022-12-04T04:19:07.061Z,402.00
2022-12-04T04:20:07.080Z,429.00
2022-12-04T04:21:07.040Z,426.00
2022-12-04T04:22:07.029Z,446.00
2022-12-04T04:23:06.992Z,446.00
2022-12-04T04:24:06.986Z,418.00
2022-12-04T04:25:06.964Z,422.00
2022-12-04T04:26:06.970Z,443.00
2022-12-04T04:27:06.956Z,447.00
2022-12-04T04:28:06.948Z,442.00
2022-12-04T04:29:06.929Z,453.00
2022-12-04T04:30:06.925Z,451.00
2022-12-04T04:31:06.970Z,448.00
2022-12-04T04:32:06.888Z,448.00
2022-12-04T04:33:06.863Z,441.00
2022-12-04T04:34:06.861Z,433.00
2022-12-04T04:35:06.858Z,450.00
2022-12-04T04:36:06.848Z,422.00
2022-12-04T04:37:06.824Z,433.00
2022-12-04T04:38:06.816Z,440.00
2022-12-04T04:39:06.804Z,448.00
2022-12-04T04:40:06.785Z,440.00
2022-12-04T04:41:06.761Z,418.00
2022-12-04T04:42:06.798Z,417.00
2022-12-04T04:43:06.762Z,426.00
2022-12-04T04:44:06.725Z,430.00
2022-12-04T04:45:06.728Z,428.00
2022-12-04T04:46:06.758Z,453.00
2022-12-04T04:47:06.703Z,449.00
2022-12-04T04:48:06.685Z,427.00
2022-12-04T04:49:06.663Z,442.00
2022-12-04T04:50:06.669Z,442.00
2022-12-04T04:51:06.649Z,428.00
2022-12-04T04:52:06.647Z,459.00
2022-12-04T04:53:06.650Z,449.00
2022-12-04T04:54:06.619Z,440.00
2022-12-04T04:55:06.602Z,438.00
2022-12-04T04:56:06.582Z,397.00
2022-12-04T04:57:06.570Z,414.00
2022-12-04T04:58:06.565Z,442.00
2022-12-04T04:59:06.560Z,416.00
2022-12-04T05:00:06.533Z,420.00
2022-12-04T05:01:06.528Z,410.00
2022-12-04T05:02:06.600Z,392.00
2022-12-04T05:03:06.605Z,385.00
2022-12-04T05:04:06.501Z,388.00
2022-12-04T05:05:06.474Z,419.00
2022-12-04T05:06:06.445Z,382.00
2022-12-04T05:07:06.465Z,429.00
2022-12-04T05:08:06.526Z,446.00
2022-12-04T05:09:06.406Z,439.00
2022-12-04T05:10:06.420Z,432.00
2022-12-04T05:11:06.381Z,441.00
2022-12-04T05:12:06.373Z,460.00
2022-12-04T05:13:06.382Z,455.00
2022-12-04T05:14:06.385Z,444.00
2022-12-04T05:15:06.346Z,425.00
2022-12-04T05:16:06.410Z,391.00
2022-12-04T05:17:10.918Z,404.00
2022-12-04T05:18:06.312Z,419.00
2022-12-04T05:19:06.287Z,425.00
2022-12-04T05:20:06.280Z,441.00
2022-12-04T05:21:06.254Z,436.00
2022-12-04T05:22:06.268Z,403.00
2022-12-04T05:23:06.229Z,434.00
2022-12-04T05:24:06.219Z,431.00
2022-12-04T05:25:06.208Z,431.00
2022-12-04T05:26:06.223Z,444.00
2022-12-04T05:27:06.204Z,446.00
2022-12-04T05:28:06.176Z,431.00
2022-12-04T05:29:06.183Z,405.00
2022-12-04T05:30:06.156Z,383.00
2022-12-04T05:31:06.183Z,436.00
2022-12-04T05:32:06.122Z,421.00
2022-12-04T05:33:06.107Z,413.00
2022-12-04T05:34:06.111Z,412.00
2022-12-04T05:35:10.764Z,413.00
2022-12-04T05:36:06.107Z,411.00
2022-12-04T05:37:06.061Z,404.00
2022-12-04T05:38:06.057Z,412.00
2022-12-04T05:39:06.019Z,434.00
2022-12-04T05:40:06.036Z,433.00
2022-12-04T05:41:06.014Z,434.00
2022-12-04T05:42:06.011Z,415.00
2022-12-04T05:43:05.974Z,392.00
2022-12-04T05:44:05.971Z,422.00
2022-12-04T05:45:05.962Z,426.00
2022-12-04T05:46:05.960Z,421.00
2022-12-04T05:47:06.104Z,424.00
2022-12-04T05:48:05.938Z,415.00
2022-12-04T05:49:05.906Z,382.00
2022-12-04T05:50:05.891Z,391.00
2022-12-04T05:51:05.870Z,405.00
2022-12-04T05:52:05.859Z,384.00
2022-12-04T05:53:05.851Z,395.00
2022-12-04T05:54:05.861Z,420.00
2022-12-04T05:55:05.814Z,442.00
2022-12-04T05:56:05.828Z,433.00
2022-12-04T05:57:05.797Z,427.00
2022-12-04T05:58:05.816Z,442.00
2022-12-04T05:59:05.776Z,433.00
2022-12-04T06:00:05.771Z,418.00
2022-12-04T06:01:05.758Z,404.00
2022-12-04T06:02:05.847Z,401.00
2022-12-04T06:03:05.796Z,409.00
2022-12-04T06:04:05.707Z,416.00
2022-12-04T06:05:05.705Z,439.00
2022-12-04T06:06:05.771Z,413.00
2022-12-04T06:07:05.723Z,427.00
2022-12-04T06:08:05.792Z,439.00
2022-12-04T06:09:05.671Z,434.00
2022-12-04T06:10:05.639Z,431.00
2022-12-04T06:11:05.658Z,416.00
2022-12-04T06:12:05.639Z,406.00
2022-12-04T06:13:05.664Z,417.00
2022-12-04T06:14:05.605Z,411.00
2022-12-04T06:15:05.591Z,423.00
2022-12-04T06:16:05.598Z,417.00
2022-12-04T06:17:05.561Z,424.00
2022-12-04T06:18:05.535Z,422.00
2022-12-04T06:19:05.529Z,417.00
2022-12-04T06:20:11.096Z,413.00
2022-12-04T06:21:05.588Z,426.00
2022-12-04T06:22:05.500Z,430.00
2022-12-04T06:23:05.475Z,424.00
2022-12-04T06:24:05.493Z,426.00
2022-12-04T06:25:05.453Z,439.00
2022-12-04T06:26:07.319Z,451.00
2022-12-04T06:27:26.646Z,453.00
2022-12-04T06:28:05.440Z,454.00
2022-12-04T06:29:05.451Z,468.00
2022-12-04T06:30:05.407Z,462.00
2022-12-04T06:31:11.466Z,453.00
2022-12-04T06:32:05.388Z,450.00
2022-12-04T06:33:05.338Z,420.00
2022-12-04T06:34:05.368Z,452.00
2022-12-04T06:35:05.350Z,426.00
2022-12-04T06:36:05.311Z,430.00
2022-12-04T06:37:05.374Z,424.00
2022-12-04T06:38:05.306Z,387.00
2022-12-04T06:39:05.300Z,394.00
2022-12-04T06:40:05.256Z,392.00
2022-12-04T06:41:05.262Z,365.00
2022-12-04T06:42:05.250Z,363.00
2022-12-04T06:43:05.218Z,365.00
2022-12-04T06:44:05.226Z,368.00
2022-12-04T06:45:05.269Z,380.00
2022-12-04T06:46:05.277Z,402.00
2022-12-04T06:47:05.207Z,452.00
2022-12-04T06:48:05.192Z,441.00
2022-12-04T06:49:05.226Z,445.00
2022-12-04T06:50:05.165Z,430.00
2022-12-04T06:51:05.190Z,431.00
2022-12-04T06:52:05.114Z,418.00
2022-12-04T06:53:08.526Z,417.00
2022-12-04T06:54:05.100Z,410.00
2022-12-04T06:55:05.147Z,416.00
2022-12-04T06:56:05.078Z,433.00
2022-12-04T06:57:05.070Z,450.00
2022-12-04T06:58:05.069Z,486.00
2022-12-04T06:59:05.123Z,449.00
2022-12-04T07:00:05.019Z,437.00
2022-12-04T07:01:05.059Z,430.00
2022-12-04T07:02:05.055Z,437.00
2022-12-04T07:03:05.042Z,433.00
2022-12-04T07:04:05.011Z,433.00
2022-12-04T07:05:04.980Z,422.00
2022-12-04T07:06:04.933Z,421.00
2022-12-04T07:07:04.980Z,420.00
2022-12-04T07:08:05.042Z,425.00
2022-12-04T07:09:04.979Z,393.00
2022-12-04T07:10:04.968Z,394.00
2022-12-04T07:11:04.846Z,387.00
2022-12-04T07:12:04.840Z,381.00
2022-12-04T07:13:04.878Z,385.00
2022-12-04T07:14:04.814Z,395.00
2022-12-04T07:15:04.830Z,400.00
2022-12-04T07:16:04.921Z,409.00
2022-12-04T07:17:04.877Z,417.00
2022-12-04T07:18:04.812Z,426.00
2022-12-04T07:19:04.806Z,427.00
2022-12-04T07:20:04.791Z,406.00
2022-12-04T07:21:04.835Z,404.00
2022-12-04T07:22:04.763Z,389.00
2022-12-04T07:23:07.337Z,367.00
2022-12-04T07:24:04.718Z,378.00
2022-12-04T07:25:04.723Z,372.00
2022-12-04T07:26:04.722Z,376.00
2022-12-04T07:27:04.742Z,341.00
2022-12-04T07:28:04.637Z,356.00
2022-12-04T07:29:04.635Z,385.00
2022-12-04T07:30:04.669Z,364.00
2022-12-04T07:31:04.642Z,363.00
2022-12-04T07:32:04.648Z,379.00
2022-12-04T07:33:04.572Z,382.00
2022-12-04T07:34:04.559Z,367.00
2022-12-04T07:35:04.560Z,367.00
2022-12-04T07:36:04.547Z,367.00
2022-12-04T07:37:05.444Z,348.00
2022-12-04T07:38:04.523Z,351.00
2022-12-04T07:39:04.539Z,354.00
2022-12-04T07:40:04.536Z,366.00
2022-12-04T07:41:04.488Z,361.00
2022-12-04T07:42:04.487Z,373.00
2022-12-04T07:43:04.457Z,363.00
2022-12-04T07:44:04.431Z,361.00
2022-12-04T07:45:04.447Z,357.00
2022-12-04T07:46:04.475Z,364.00
2022-12-04T07:47:04.397Z,357.00
2022-12-04T07:48:04.383Z,380.00
2022-12-04T07:49:04.363Z,338.00
2022-12-04T07:50:04.363Z,353.00
2022-12-04T07:51:04.340Z,357.00
2022-12-04T07:52:04.337Z,362.00
2022-12-04T07:53:04.342Z,358.00
2022-12-04T07:54:04.620Z,355.00
2022-12-04T07:55:04.324Z,337.00
2022-12-04T07:56:04.304Z,362.00
2022-12-04T07:57:04.316Z,346.00
2022-12-04T07:58:04.289Z,351.00
2022-12-04T07:59:04.274Z,360.00
2022-12-04T08:00:04.247Z,366.00
2022-12-04T08:01:04.307Z,376.00
2022-12-04T08:02:04.426Z,392.00
2022-12-04T08:03:04.212Z,399.00
2022-12-04T08:04:04.198Z,407.00
2022-12-04T08:05:04.256Z,403.00
2022-12-04T08:06:04.182Z,399.00
2022-12-04T08:07:04.146Z,394.00
2022-12-04T08:08:04.193Z,379.00
2022-12-04T08:09:09.522Z,389.00
2022-12-04T08:10:04.106Z,378.00
2022-12-04T08:11:04.162Z,380.00
2022-12-04T08:12:04.141Z,386.00
2022-12-04T08:13:04.110Z,395.00
2022-12-04T08:14:04.064Z,376.00
2022-12-04T08:15:04.035Z,366.00
2022-12-04T08:16:04.052Z,361.00
2022-12-04T08:17:04.088Z,359.00
2022-12-04T08:18:03.977Z,359.00
2022-12-04T08:19:04.002Z,361.00
2022-12-04T08:20:04.025Z,358.00
2022-12-04T08:21:04.009Z,362.00
2022-12-04T08:22:03.937Z,348.00
2022-12-04T08:23:03.959Z,335.00
2022-12-04T08:24:03.953Z,384.00
2022-12-04T08:25:03.930Z,399.00
2022-12-04T08:26:03.908Z,416.00
2022-12-04T08:27:03.914Z,401.00
2022-12-04T08:28:03.857Z,339.00
2022-12-04T08:29:03.867Z,334.00
2022-12-04T08:30:03.844Z,348.00
2022-12-04T08:31:03.905Z,361.00
2022-12-04T08:32:03.825Z,360.00
2022-12-04T08:33:03.821Z,353.00
2022-12-04T08:34:03.786Z,325.00
2022-12-04T08:35:03.764Z,355.00
2022-12-04T08:36:03.759Z,353.00
2022-12-04T08:37:03.769Z,350.00
2022-12-04T08:38:03.751Z,351.00
2022-12-04T08:39:03.751Z,347.00
2022-12-04T08:40:03.718Z,364.00
2022-12-04T08:41:03.700Z,363.00
2022-12-04T08:42:03.719Z,356.00
2022-12-04T08:43:03.692Z,348.00
2022-12-04T08:44:03.653Z,350.00
2022-12-04T08:45:03.667Z,361.00
2022-12-04T08:46:03.680Z,367.00
2022-12-04T08:47:03.627Z,361.00
2022-12-04T08:48:03.594Z,351.00
2022-12-04T08:49:03.594Z,372.00
2022-12-04T08:50:03.575Z,377.00
2022-12-04T08:51:03.570Z,374.00
2022-12-04T08:52:03.557Z,370.00
2022-12-04T08:53:03.541Z,375.00
2022-12-04T08:54:03.555Z,371.00
2022-12-04T08:55:03.518Z,344.00
2022-12-04T08:56:03.511Z,359.00
2022-12-04T08:57:03.605Z,361.00
2022-12-04T08:58:03.472Z,400.00
2022-12-04T08:59:03.883Z,401.00
2022-12-04T09:00:03.479Z,399.00
2022-12-04T09:01:03.487Z,393.00
2022-12-04T09:02:03.502Z,396.00
2022-12-04T09:03:03.445Z,380.00
2022-12-04T09:04:03.533Z,382.00
2022-12-04T09:05:03.412Z,364.00
2022-12-04T09:06:03.386Z,362.00
2022-12-04T09:07:03.396Z,356.00
2022-12-04T09:08:03.449Z,362.00
2022-12-04T09:09:03.389Z,360.00
2022-12-04T09:10:03.375Z,328.00
2022-12-04T09:11:03.317Z,348.00
2022-12-04T09:12:03.291Z,350.00
2022-12-04T09:13:03.327Z,356.00
2022-12-04T09:14:03.260Z,358.00
2022-12-04T09:15:03.398Z,357.00
2022-12-04T09:16:03.401Z,360.00
2022-12-04T09:17:03.257Z,359.00
2022-12-04T09:18:03.204Z,361.00
2022-12-04T09:19:03.210Z,361.00
2022-12-04T09:20:03.708Z,366.00
2022-12-04T09:21:03.221Z,358.00
2022-12-04T09:22:03.174Z,349.00
2022-12-04T09:23:04.728Z,348.00
2022-12-04T09:24:03.148Z,352.00
2022-12-04T09:25:03.183Z,363.00
2022-12-04T09:26:03.121Z,361.00
2022-12-04T09:27:03.135Z,358.00
2022-12-04T09:28:03.083Z,354.00
2022-12-04T09:29:03.090Z,377.00
2022-12-04T09:30:03.109Z,411.00
2022-12-04T09:31:03.093Z,428.00
2022-12-04T09:32:03.047Z,444.00
2022-12-04T09:33:03.039Z,467.00
2022-12-04T09:34:03.070Z,471.00
2022-12-04T09:35:03.027Z,472.00
2022-12-04T09:36:03.064Z,421.00
2022-12-04T09:37:02.994Z,393.00
2022-12-04T09:38:02.950Z,421.00
2022-12-04T09:39:02.949Z,399.00
2022-12-04T09:40:02.945Z,353.00
2022-12-04T09:41:02.976Z,371.00
2022-12-04T09:42:02.914Z,376.00
2022-12-04T09:43:02.908Z,372.00
2022-12-04T09:44:02.914Z,369.00
2022-12-04T09:45:02.880Z,368.00
2022-12-04T09:46:02.946Z,390.00
2022-12-04T09:47:02.979Z,354.00
2022-12-04T09:48:02.823Z,362.00
2022-12-04T09:49:02.847Z,363.00
2022-12-04T09:50:02.845Z,369.00
2022-12-04T09:51:02.791Z,373.00
2022-12-04T09:52:02.788Z,362.00
2022-12-04T09:53:02.774Z,363.00
2022-12-04T09:54:02.811Z,360.00
2022-12-04T09:55:02.746Z,372.00
2022-12-04T09:56:02.740Z,355.00
2022-12-04T09:57:02.737Z,354.00
2022-12-04T09:58:02.802Z,357.00
2022-12-04T09:59:02.718Z,364.00
2022-12-04T10:00:02.684Z,363.00
2022-12-04T10:01:02.692Z,365.00
2022-12-04T10:02:02.833Z,356.00
2022-12-04T10:03:02.717Z,358.00
2022-12-04T10:04:06.459Z,350.00
2022-12-04T10:05:02.626Z,352.00
2022-12-04T10:06:02.605Z,367.00
2022-12-04T10:07:02.590Z,369.00
2022-12-04T10:08:02.670Z,362.00
2022-12-04T10:09:02.577Z,364.00
2022-12-04T10:10:02.577Z,351.00
2022-12-04T10:11:02.548Z,361.00
2022-12-04T10:12:02.522Z,363.00
2022-12-04T10:13:02.524Z,360.00
2022-12-04T10:14:02.500Z,372.00
2022-12-04T10:15:02.491Z,373.00
2022-12-04T10:16:02.537Z,357.00
2022-12-04T10:17:02.464Z,366.00
2022-12-04T10:18:02.451Z,363.00
2022-12-04T10:19:02.429Z,363.00
2022-12-04T10:20:02.474Z,361.00
2022-12-04T10:21:02.411Z,363.00
2022-12-04T10:22:02.390Z,356.00
2022-12-04T10:23:02.401Z,349.00
2022-12-04T10:24:02.380Z,366.00
2022-12-04T10:25:02.345Z,359.00
2022-12-04T10:26:02.369Z,346.00
2022-12-04T10:27:02.344Z,355.00
2022-12-04T10:28:02.322Z,361.00
2022-12-04T10:29:02.333Z,363.00
2022-12-04T10:30:02.291Z,363.00
2022-12-04T10:31:02.364Z,359.00
2022-12-04T10:32:02.284Z,353.00
2022-12-04T10:33:02.259Z,344.00
2022-12-04T10:34:02.251Z,330.00
2022-12-04T10:35:02.224Z,327.00
2022-12-04T10:36:02.243Z,329.00
2022-12-04T10:37:02.192Z,337.00
2022-12-04T10:38:02.218Z,339.00
2022-12-04T10:39:02.185Z,347.00
2022-12-04T10:40:02.204Z,359.00
2022-12-04T10:41:02.153Z,360.00
2022-12-04T10:42:02.151Z,356.00
2022-12-04T10:43:02.139Z,364.00
2022-12-04T10:44:02.121Z,359.00
2022-12-04T10:45:02.100Z,361.00
2022-12-04T10:46:02.320Z,363.00
2022-12-04T10:47:02.361Z,371.00
2022-12-04T10:48:02.108Z,362.00
2022-12-04T10:49:02.095Z,409.00
2022-12-04T10:50:02.031Z,428.00
2022-12-04T10:51:02.067Z,418.00
2022-12-04T10:52:02.026Z,407.00
2022-12-04T10:53:02.015Z,394.00
2022-12-04T10:54:01.981Z,447.00
2022-12-04T10:55:01.977Z,462.00
2022-12-04T10:56:01.976Z,426.00
2022-12-04T10:57:01.967Z,357.00
2022-12-04T10:58:01.939Z,360.00
2022-12-04T10:59:01.926Z,355.00
2022-12-04T11:00:01.920Z,360.00
2022-12-04T11:01:01.913Z,366.00
2022-12-04T11:02:06.703Z,355.00
2022-12-04T11:03:01.968Z,355.00
2022-12-04T11:04:01.852Z,365.00
2022-12-04T11:05:01.845Z,365.00
2022-12-04T11:06:01.857Z,374.00
2022-12-04T11:07:01.807Z,366.00
2022-12-04T11:08:01.908Z,451.00
2022-12-04T11:09:01.795Z,432.00
2022-12-04T11:10:01.774Z,404.00
2022-12-04T11:11:01.773Z,405.00
2022-12-04T11:12:01.769Z,380.00
2022-12-04T11:13:01.736Z,371.00
2022-12-04T11:14:01.744Z,369.00
2022-12-04T11:15:01.718Z,369.00
2022-12-04T11:16:01.742Z,365.00
2022-12-04T11:17:01.702Z,368.00
2022-12-04T11:18:01.673Z,364.00
2022-12-04T11:19:01.653Z,365.00
2022-12-04T11:20:01.669Z,370.00
2022-12-04T11:21:01.638Z,364.00
2022-12-04T11:22:01.628Z,364.00
2022-12-04T11:23:01.600Z,364.00
2022-12-04T11:24:01.612Z,362.00
2022-12-04T11:25:01.610Z,363.00
2022-12-04T11:26:05.994Z,356.00
2022-12-04T11:27:01.552Z,344.00
2022-12-04T11:28:01.540Z,365.00
2022-12-04T11:29:01.535Z,357.00
2022-12-04T11:30:01.509Z,357.00
2022-12-04T11:31:01.549Z,360.00
2022-12-04T11:32:07.106Z,359.00
2022-12-04T11:33:01.476Z,359.00
2022-12-04T11:34:01.472Z,354.00
2022-12-04T11:35:01.466Z,356.00
2022-12-04T11:36:01.431Z,357.00
2022-12-04T11:37:01.418Z,363.00
2022-12-04T11:38:01.442Z,369.00
2022-12-04T11:39:01.385Z,368.00
2022-12-04T11:40:01.443Z,359.00
2022-12-04T11:41:01.425Z,366.00
2022-12-04T11:42:01.425Z,406.00
2022-12-04T11:43:01.358Z,403.00
2022-12-04T11:44:01.365Z,375.00
2022-12-04T11:45:01.334Z,432.00
2022-12-04T11:46:01.355Z,456.00
2022-12-04T11:47:01.397Z,453.00
2022-12-04T11:48:01.309Z,441.00
2022-12-04T11:49:01.276Z,418.00
2022-12-04T11:50:01.419Z,375.00
2022-12-04T11:51:01.276Z,360.00
2022-12-04T11:52:01.269Z,361.00
2022-12-04T11:53:01.347Z,359.00
2022-12-04T11:54:01.232Z,362.00
2022-12-04T11:55:01.238Z,361.00
2022-12-04T11:56:01.253Z,369.00
2022-12-04T11:57:01.227Z,368.00
2022-12-04T11:58:01.229Z,377.00
2022-12-04T11:59:01.241Z,360.00
2022-12-04T12:00:01.195Z,361.00
2022-12-04T12:01:01.326Z,357.00
2022-12-04T12:02:01.261Z,352.00
2022-12-04T12:03:01.265Z,360.00
2022-12-04T12:04:01.121Z,370.00
2022-12-04T12:05:01.074Z,397.00
2022-12-04T12:06:01.056Z,377.00
2022-12-04T12:07:01.107Z,397.00
2022-12-04T12:08:03.273Z,422.00
2022-12-04T12:09:01.017Z,422.00
2022-12-04T12:10:01.084Z,440.00
2022-12-04T12:11:01.006Z,478.00
2022-12-04T12:12:00.965Z,471.00
2022-12-04T12:13:00.959Z,452.00
2022-12-04T12:14:00.964Z,453.00
2022-12-04T12:15:00.975Z,439.00
2022-12-04T12:16:01.010Z,406.00
2022-12-04T12:17:00.879Z,389.00
2022-12-04T12:18:00.956Z,378.00
2022-12-04T12:19:00.921Z,361.00
2022-12-04T12:20:00.885Z,361.00
2022-12-04T12:21:00.884Z,353.00
2022-12-04T12:22:05.241Z,363.00
2022-12-04T12:23:00.809Z,360.00
2022-12-04T12:24:00.841Z,362.00
2022-12-04T12:25:00.817Z,379.00
2022-12-04T12:26:00.806Z,373.00
2022-12-04T12:27:00.780Z,372.00
2022-12-04T12:28:00.750Z,344.00